Time;durP1;ratioP1;P1;durP2;ratioP2;P2;SDS_P1;SDS_P2;PMS_P1;PMS_P2;Temp;Humidity;BMP_temperature;BMP_pressure;BME280_temperature;BME280_humidity;BME280_pressure;Samples;Min_cycle;Max_cycle;Signal;HPM_P1;HPM_P2
2021/10/25 00:01:18;;;;;;;22.73;6.47;;;12.70;99.90;;;;;;5056305;28;20053;-90
2021/10/25 00:03:48;;;;;;;21.05;4.90;;;12.70;99.90;;;;;;5048928;28;20044;-89
2021/10/25 00:06:18;;;;;;;25.30;6.22;;;12.70;99.90;;;;;;5075547;28;20057;-90
2021/10/25 00:08:54;;;;;;;24.13;7.13;;;12.80;99.90;;;;;;5040737;28;20044;-89
2021/10/25 00:11:41;;;;;;;15.95;6.00;;;14.00;99.90;;;;;;5025017;28;20056;-90
2021/10/25 00:14:29;;;;;;;20.30;5.53;;;12.80;99.90;;;;;;5026544;28;20057;-91
2021/10/25 00:17:16;;;;;;;24.10;6.28;;;12.90;99.90;;;;;;5025755;28;20044;-91
2021/10/25 00:20:12;;;;;;;19.90;5.55;;;12.90;99.90;;;;;;5036934;28;20170;-89
2021/10/25 00:22:55;;;;;;;33.42;6.80;;;12.80;99.90;;;;;;5007462;28;20064;-90
2021/10/25 00:25:40;;;;;;;17.63;5.35;;;12.90;99.90;;;;;;5035108;28;20049;-90
2021/10/25 00:28:20;;;;;;;32.47;7.07;;;12.80;99.90;;;;;;5036318;28;20076;-89
2021/10/25 00:31:14;;;;;;;21.25;6.18;;;12.70;99.90;;;;;;5046547;28;20055;-90
2021/10/25 00:33:58;;;;;;;17.65;5.70;;;12.60;99.90;;;;;;5011883;28;20045;-92
2021/10/25 00:37:02;;;;;;;21.35;5.45;;;12.70;99.90;;;;;;5059258;28;20041;-91
2021/10/25 00:39:54;;;;;;;22.35;6.00;;;12.60;99.90;;;;;;5045353;28;20049;-91
2021/10/25 00:42:27;;;;;;;18.88;5.60;;;12.60;99.90;;;;;;5055797;28;20055;-90
2021/10/25 00:45:13;;;;;;;29.02;7.22;;;12.50;99.90;;;;;;5041501;28;20053;-91
2021/10/25 00:48:05;;;;;;;26.90;6.93;;;12.50;99.90;;;;;;5035909;28;20057;-91
2021/10/25 00:51:55;;;;;;;26.98;6.47;;;12.50;99.90;;;;;;5053332;28;20052;-91
2021/10/25 00:54:38;;;;;;;25.17;7.25;;;12.40;99.90;;;;;;5002271;28;20057;-90
2021/10/25 00:57:09;;;;;;;24.98;6.55;;;12.40;99.90;;;;;;5023445;28;20049;-91
2021/10/25 00:59:38;;;;;;;24.98;5.00;;;12.40;99.90;;;;;;5061170;28;20044;-91
2021/10/25 01:02:07;;;;;;;21.30;6.22;;;12.30;99.90;;;;;;5058544;28;20037;-92
2021/10/25 01:04:35;;;;;;;21.83;7.82;;;12.30;99.90;;;;;;5041356;28;20049;-92
2021/10/25 01:07:04;;;;;;;20.52;6.97;;;12.30;99.90;;;;;;5059650;28;20045;-92
2021/10/25 01:09:34;;;;;;;27.00;6.90;;;12.30;99.90;;;;;;5041605;28;20049;-92
2021/10/25 01:12:04;;;;;;;;;;;12.20;99.90;;;;;;4696037;28;10000467;-92
2021/10/25 01:14:31;;;;;;;19.17;5.88;;;12.20;99.90;;;;;;5008360;28;20307;-91
2021/10/25 01:17:00;;;;;;;21.63;6.88;;;12.20;99.90;;;;;;5040101;28;20634;-92
2021/10/25 01:19:28;;;;;;;22.75;7.50;;;12.20;99.90;;;;;;5065916;28;20049;-92
2021/10/25 01:21:57;;;;;;;14.82;5.72;;;12.20;99.90;;;;;;5036979;28;20053;-92
2021/10/25 01:24:25;;;;;;;21.67;5.57;;;12.20;99.90;;;;;;5024048;28;20048;-92
2021/10/25 01:26:53;;;;;;;20.20;6.05;;;12.20;99.90;;;;;;5040885;28;20041;-92
2021/10/25 01:29:22;;;;;;;26.60;7.15;;;12.10;99.90;;;;;;5024083;28;20048;-92
2021/10/25 01:31:50;;;;;;;31.75;7.15;;;12.10;99.90;;;;;;5050942;28;20036;-92
2021/10/25 01:34:18;;;;;;;26.77;7.65;;;12.10;99.90;;;;;;5028340;28;20056;-92
2021/10/25 01:36:47;;;;;;;25.60;7.95;;;11.80;99.90;;;;;;5039320;28;20503;-92
2021/10/25 01:39:15;;;;;;;20.95;6.15;;;12.00;99.90;;;;;;5038886;28;20057;-93
2021/10/25 01:41:43;;;;;;;21.67;6.40;;;12.00;99.90;;;;;;5023070;28;20048;-92
2021/10/25 01:44:12;;;;;;;28.27;6.28;;;11.90;99.90;;;;;;5024868;28;20044;-92
2021/10/25 01:46:42;;;;;;;26.60;7.63;;;11.90;99.90;;;;;;5023432;28;20045;-93
2021/10/25 01:49:25;;;;;;;17.98;6.55;;;11.80;99.90;;;;;;5024020;28;20053;-93
2021/10/25 01:51:55;;;;;;;27.75;8.10;;;11.80;99.90;;;;;;5025636;28;20045;-91
2021/10/25 01:54:25;;;;;;;;;;;11.80;99.90;;;;;;4995423;28;20053;-91
2021/10/25 01:56:54;;;;;;;24.65;6.72;;;11.70;99.90;;;;;;5039781;28;19932;-91
2021/10/25 01:59:23;;;;;;;21.20;6.53;;;11.70;99.90;;;;;;5049649;28;20049;-92
2021/10/25 02:01:51;;;;;;;29.70;7.03;;;11.70;99.90;;;;;;5042657;28;20052;-91
2021/10/25 02:04:20;;;;;;;25.90;7.40;;;11.60;99.90;;;;;;5023098;28;20080;-91
2021/10/25 02:06:48;;;;;;;30.50;6.60;;;11.60;99.90;;;;;;5022366;28;20515;-90
2021/10/25 02:09:17;;;;;;;20.30;6.30;;;11.60;99.90;;;;;;5044337;28;20049;-90
2021/10/25 02:11:47;;;;;;;28.77;7.40;;;11.60;99.90;;;;;;5042882;28;20051;-90
2021/10/25 02:14:16;;;;;;;24.77;6.45;;;11.60;99.90;;;;;;5028977;28;20060;-89
2021/10/25 02:16:45;;;;;;;19.33;7.15;;;11.70;99.90;;;;;;5049638;28;20041;-89
2021/10/25 02:19:14;;;;;;;28.13;9.20;;;11.50;99.90;;;;;;5050595;28;20079;-90
2021/10/25 02:22:09;;;;;;;29.08;6.28;;;11.50;99.90;;;;;;5043222;28;20052;-92
2021/10/25 02:24:38;;;;;;;24.13;6.65;;;11.50;99.90;;;;;;5051412;28;20044;-90
2021/10/25 02:27:07;;;;;;;28.73;11.15;;;11.40;99.90;;;;;;5044043;28;20046;-92
2021/10/25 02:29:35;;;;;;;28.88;6.70;;;11.40;99.90;;;;;;5040618;28;20068;-92
2021/10/25 02:32:16;;;;;;;15.48;6.05;;;11.40;99.90;;;;;;5019138;28;20053;-91
2021/10/25 02:34:46;;;;;;;44.03;7.78;;;11.40;99.90;;;;;;5025280;28;20053;-91
2021/10/25 02:37:16;;;;;;;23.17;7.20;;;11.40;99.90;;;;;;5024505;28;20052;-90
2021/10/25 02:39:45;;;;;;;22.60;6.13;;;11.40;99.90;;;;;;5040681;28;20068;-91
2021/10/25 02:42:16;;;;;;;38.13;8.87;;;11.40;99.90;;;;;;5039687;28;20044;-91
2021/10/25 02:44:47;;;;;;;23.05;6.53;;;11.40;99.90;;;;;;5041157;28;20297;-92
2021/10/25 02:47:17;;;;;;;29.15;9.32;;;11.40;99.90;;;;;;5024872;28;20045;-91
2021/10/25 02:49:45;;;;;;;28.63;7.40;;;11.40;99.90;;;;;;5004621;28;20076;-90
2021/10/25 02:52:13;;;;;;;32.15;8.18;;;11.40;99.90;;;;;;5053183;28;20048;-90
2021/10/25 02:54:42;;;;;;;24.00;7.57;;;11.40;99.90;;;;;;5028500;28;20057;-90
2021/10/25 02:57:09;;;;;;;29.70;7.25;;;11.40;99.90;;;;;;5023764;28;20060;-89
2021/10/25 02:59:38;;;;;;;26.00;7.93;;;11.40;99.90;;;;;;5011251;28;20044;-91
2021/10/25 03:02:07;;;;;;;31.77;7.30;;;11.40;99.90;;;;;;5036736;28;20054;-90
2021/10/25 03:04:35;;;;;;;34.28;7.75;;;11.40;99.90;;;;;;5048178;28;20067;-90
2021/10/25 03:07:03;;;;;;;32.13;9.82;;;11.40;99.90;;;;;;5027611;28;20060;-89
2021/10/25 03:09:45;;;;;;;28.75;7.20;;;11.40;99.90;;;;;;5063022;28;20068;-89
2021/10/25 03:12:13;;;;;;;25.00;7.30;;;11.40;99.90;;;;;;5030967;28;20173;-91
2021/10/25 03:14:43;;;;;;;28.58;8.48;;;11.40;99.90;;;;;;5047376;28;20053;-91
2021/10/25 03:17:11;;;;;;;38.35;10.20;;;11.40;99.90;;;;;;5013749;28;20045;-92
2021/10/25 03:19:55;;;;;;;35.78;8.63;;;11.40;99.90;;;;;;5048624;28;20394;-91
2021/10/25 03:22:24;;;;;;;24.50;8.88;;;11.40;99.90;;;;;;5031939;28;20056;-91
2021/10/25 03:24:53;;;;;;;34.35;9.52;;;11.40;99.90;;;;;;5028064;28;20052;-91
2021/10/25 03:27:23;;;;;;;26.52;8.68;;;11.40;99.90;;;;;;5043785;28;20087;-93
2021/10/25 03:29:51;;;;;;;35.80;8.82;;;11.50;99.90;;;;;;5050504;28;20064;-93
2021/10/25 03:32:22;;;;;;;35.87;9.93;;;11.40;99.90;;;;;;5045443;28;20064;-90
2021/10/25 03:34:56;;;;;;;24.45;8.43;;;11.40;99.90;;;;;;5045640;28;20077;-91
2021/10/25 03:37:25;;;;;;;22.45;7.88;;;11.40;99.90;;;;;;5042861;28;20055;-89
2021/10/25 03:39:53;;;;;;;30.75;9.43;;;11.40;99.90;;;;;;5026423;28;20053;-91
2021/10/25 03:42:30;;;;;;;27.83;8.02;;;11.30;99.90;;;;;;5042476;28;20171;-91
2021/10/25 03:45:27;;;;;;;29.00;7.97;;;11.30;99.90;;;;;;5026164;28;20049;-91
2021/10/25 03:48:08;;;;;;;27.65;8.30;;;11.20;99.90;;;;;;5028326;28;20056;-90
2021/10/25 03:50:38;;;;;;;27.65;7.53;;;11.20;99.90;;;;;;5037637;28;20063;-91
2021/10/25 03:53:32;;;;;;;22.13;6.60;;;11.00;99.90;;;;;;5044037;28;20048;-91
2021/10/25 03:56:09;;;;;;;27.58;8.10;;;11.10;99.90;;;;;;5056730;28;20423;-91
2021/10/25 04:29:25;;;;;;;31.42;9.60;;;11.00;99.90;;;;;;5031198;28;20056;-92
2021/10/25 04:31:53;;;;;;;26.95;9.13;;;11.00;99.90;;;;;;5027624;28;20049;-91
2021/10/25 04:34:36;;;;;;;23.35;7.68;;;10.90;99.90;;;;;;5014147;28;20049;-91
2021/10/25 04:37:24;;;;;;;27.95;8.55;;;11.00;99.90;;;;;;5034022;28;20040;-90
2021/10/25 04:40:04;;;;;;;29.92;7.22;;;11.20;99.90;;;;;;5045393;28;20041;-90
2021/10/25 04:42:34;;;;;;;37.97;8.90;;;11.10;99.90;;;;;;5061566;28;20041;-90
2021/10/25 04:45:03;;;;;;;41.65;8.77;;;11.10;99.90;;;;;;5059107;28;20416;-91
2021/10/25 04:47:34;;;;;;;26.67;7.43;;;11.10;99.90;;;;;;5024574;28;20048;-91
2021/10/25 04:50:11;;;;;;;31.17;10.20;;;11.10;99.90;;;;;;5043416;28;20047;-92
2021/10/25 04:53:06;;;;;;;33.88;9.13;;;11.10;99.90;;;;;;5045755;28;20052;-90
2021/10/25 04:55:37;;;;;;;30.58;8.50;;;11.10;99.90;;;;;;5051690;28;20049;-90
2021/10/25 04:58:08;;;;;;;24.67;11.43;;;11.20;99.90;;;;;;5075155;28;20511;-91
2021/10/25 05:00:37;;;;;;;32.10;7.53;;;11.20;99.90;;;;;;5036065;28;20388;-91
2021/10/25 05:03:06;;;;;;;21.45;6.38;;;11.20;99.90;;;;;;5043992;28;20060;-88
2021/10/25 05:05:36;;;;;;;27.13;8.55;;;11.20;99.90;;;;;;5047818;28;20064;-91
2021/10/25 05:08:06;;;;;;;36.92;10.23;;;11.20;99.90;;;;;;5046123;28;20340;-90
2021/10/25 05:10:33;;;;;;;38.03;12.13;;;11.20;99.90;;;;;;5036066;28;20396;-88
2021/10/25 05:13:03;;;;;;;32.08;7.97;;;11.20;99.90;;;;;;5028975;28;20060;-89
2021/10/25 05:15:33;;;;;;;21.95;7.10;;;11.20;99.90;;;;;;5039227;28;20825;-93
2021/10/25 05:18:07;;;;;;;;;;;11.20;99.90;;;;;;5023622;28;20053;-92
2021/10/25 05:20:41;;;;;;;32.10;8.43;;;11.20;99.90;;;;;;5043825;28;19927;-92
2021/10/25 05:23:11;;;;;;;32.40;8.13;;;11.20;99.90;;;;;;5026947;28;20054;-93
2021/10/25 05:25:49;;;;;;;33.83;9.98;;;11.20;99.90;;;;;;5005534;28;20048;-92
2021/10/25 05:28:32;;;;;;;33.13;8.98;;;11.20;99.90;;;;;;5038304;28;20053;-90
2021/10/25 05:31:01;;;;;;;41.45;9.82;;;11.20;99.90;;;;;;5056130;28;20043;-92
2021/10/25 05:33:39;;;;;;;32.30;8.02;;;11.10;99.90;;;;;;5022634;28;20052;-89
2021/10/25 05:36:10;;;;;;;38.70;9.17;;;11.10;99.90;;;;;;5030449;28;20045;-93
2021/10/25 05:38:41;;;;;;;20.88;8.55;;;11.10;99.90;;;;;;5044621;28;20642;-94
2021/10/25 05:41:15;;;;;;;28.25;10.20;;;11.00;99.90;;;;;;5023822;28;20052;-92
2021/10/25 05:43:45;;;;;;;24.17;7.68;;;11.00;99.90;;;;;;5042064;28;20045;-90
2021/10/25 05:46:14;;;;;;;24.55;10.43;;;11.00;99.90;;;;;;5007925;28;20064;-90
2021/10/25 05:48:45;;;;;;;29.73;9.13;;;11.00;99.90;;;;;;5041551;28;20067;-91
2021/10/25 05:51:14;;;;;;;28.83;10.43;;;11.10;99.90;;;;;;5023248;28;20057;-90
2021/10/25 05:53:46;;;;;;;30.23;11.05;;;11.00;99.90;;;;;;5041532;28;20044;-91
2021/10/25 05:56:16;;;;;;;34.97;7.85;;;11.00;99.90;;;;;;5018366;28;20055;-89
2021/10/25 05:58:46;;;;;;;32.20;9.85;;;10.90;99.90;;;;;;5026109;28;20049;-91
2021/10/25 06:01:20;;;;;;;32.88;7.43;;;11.00;99.90;;;;;;5056240;28;20046;-90
2021/10/25 06:04:07;;;;;;;35.85;8.82;;;10.90;99.90;;;;;;5019351;28;20092;-90
2021/10/25 06:06:41;;;;;;;35.60;7.88;;;10.90;99.90;;;;;;4991890;28;20057;-90
2021/10/25 06:09:21;;;;;;;34.60;8.52;;;11.00;99.90;;;;;;5015097;28;20065;-91
2021/10/25 06:11:51;;;;;;;24.90;6.72;;;10.90;99.90;;;;;;5022521;28;20049;-90
2021/10/25 06:14:32;;;;;;;29.98;7.43;;;11.00;99.90;;;;;;5038959;28;20050;-92
2021/10/25 06:17:51;;;;;;;24.88;6.57;;;11.00;99.90;;;;;;5042263;28;20060;-92
2021/10/25 06:20:14;;;;;;;35.60;7.00;;;11.00;99.90;;;;;;4675391;28;10000368;-91
2021/10/25 06:22:44;;;;;;;35.90;7.20;;;11.00;99.90;;;;;;5039845;28;20343;-90
2021/10/25 06:25:37;;;;;;;30.40;6.72;;;11.00;99.90;;;;;;5029743;28;20049;-93
2021/10/25 06:28:32;;;;;;;39.78;9.45;;;10.90;99.90;;;;;;5042486;28;20046;-94
2021/10/25 06:31:09;;;;;;;22.80;7.40;;;10.90;99.90;;;;;;5009809;28;20045;-90
2021/10/25 06:37:49;;;;;;;29.45;7.28;;;10.90;99.90;;;;;;5054877;28;20052;-93
2021/10/25 06:40:41;;;;;;;24.08;6.80;;;10.90;99.90;;;;;;5033310;28;20056;-93
2021/10/25 06:43:26;;;;;;;36.25;11.48;;;10.90;99.90;;;;;;5056004;28;20056;-92
2021/10/25 06:46:13;;;;;;;32.58;9.73;;;10.90;99.90;;;;;;5026098;28;20148;-91
2021/10/25 06:49:01;;;;;;;46.15;9.85;;;10.90;99.90;;;;;;5056532;28;20067;-92
2021/10/25 06:51:47;;;;;;;32.95;6.93;;;11.40;99.90;;;;;;5053225;28;20056;-92
2021/10/25 06:54:55;;;;;;;39.28;6.80;;;10.90;99.90;;;;;;5053229;28;20051;-90
2021/10/25 06:58:00;;;;;;;28.25;7.32;;;10.90;99.90;;;;;;5057374;28;20063;-92
2021/10/25 07:00:40;;;;;;;28.15;7.20;;;10.90;99.90;;;;;;5027078;28;20051;-92
2021/10/25 07:03:52;;;;;;;32.83;7.63;;;11.00;99.90;;;;;;5056501;28;20040;-89
2021/10/25 07:06:47;;;;;;;32.38;9.27;;;11.00;99.90;;;;;;5028319;28;20050;-93
2021/10/25 07:10:23;;;;;;;28.25;6.93;;;11.00;99.90;;;;;;5020084;28;20038;-92
2021/10/25 07:13:50;;;;;;;30.73;7.63;;;11.10;99.90;;;;;;5050622;28;20041;-90
2021/10/25 07:16:30;;;;;;;24.60;5.95;;;11.10;99.90;;;;;;5037240;28;20525;-86
2021/10/25 07:19:49;;;;;;;21.88;6.28;;;11.20;99.90;;;;;;5017890;28;20647;-85
2021/10/25 08:05:38;;;;;;;24.00;5.25;;;11.90;99.90;;;;;;5030669;28;20409;-88
2021/10/25 08:08:31;;;;;;;37.55;7.13;;;12.00;99.90;;;;;;5031731;28;20045;-89
2021/10/25 08:11:08;;;;;;;;;;;12.10;99.90;;;;;;4983246;28;20419;-88
2021/10/25 08:13:48;;;;;;;23.02;5.88;;;12.30;99.90;;;;;;5023866;28;20969;-87
2021/10/25 08:21:21;;;;;;;27.70;6.40;;;12.40;99.90;;;;;;5014394;28;20049;-86
2021/10/25 08:23:51;;;;;;;23.85;4.85;;;12.40;99.90;;;;;;5009564;28;20497;-89
2021/10/25 08:26:40;;;;;;;30.67;7.25;;;12.50;99.90;;;;;;5004664;28;20508;-89
2021/10/25 08:29:09;;;;;;;23.05;4.78;;;12.50;99.90;;;;;;4992217;28;20057;-88
2021/10/25 08:31:40;;;;;;;31.05;6.35;;;12.60;99.90;;;;;;5023942;28;20049;-88
2021/10/25 08:40:01;;;;;;;29.50;4.70;;;12.70;99.90;;;;;;5024421;28;20060;-88
2021/10/25 08:42:36;;;;;;;18.13;4.03;;;12.80;99.90;;;;;;5018960;28;20041;-87
2021/10/25 08:45:17;;;;;;;22.42;7.22;;;12.90;99.90;;;;;;5007337;28;20037;-88
2021/10/25 08:47:48;;;;;;;23.70;5.32;;;13.00;99.90;;;;;;5006168;28;20061;-89
2021/10/25 08:50:25;;;;;;;31.55;5.72;;;13.00;99.90;;;;;;5027440;28;20060;-87
2021/10/25 08:52:53;;;;;;;24.88;5.35;;;13.10;99.90;;;;;;5023855;28;20046;-88
2021/10/25 08:55:34;;;;;;;24.58;5.57;;;13.00;99.90;;;;;;5007107;28;20042;-87
2021/10/25 08:58:03;;;;;;;23.35;4.55;;;13.20;99.90;;;;;;5007871;28;20065;-87
2021/10/25 09:00:43;;;;;;;14.38;3.75;;;13.30;99.90;;;;;;5021077;28;20046;-90
2021/10/25 09:03:21;;;;;;;35.38;5.10;;;13.40;99.90;;;;;;4995297;28;20057;-87
2021/10/25 09:06:01;;;;;;;16.05;5.07;;;13.50;99.90;;;;;;5030715;28;20069;-88
2021/10/25 09:08:34;;;;;;;18.25;3.67;;;13.50;99.90;;;;;;4997357;28;20397;-88
2021/10/25 09:11:05;;;;;;;22.98;3.92;;;13.60;99.90;;;;;;5030020;28;20045;-89
2021/10/25 09:13:46;;;;;;;15.07;3.67;;;13.70;99.90;;;;;;5032855;28;20121;-88
2021/10/25 09:16:18;;;;;;;15.85;4.32;;;12.80;99.90;;;;;;5044866;28;20048;-88
2021/10/25 09:18:59;;;;;;;17.65;3.92;;;14.00;99.90;;;;;;5027728;28;20057;-87
2021/10/25 09:21:34;;;;;;;22.30;4.22;;;14.10;99.90;;;;;;5030335;28;20060;-88
2021/10/25 09:24:20;;;;;;;23.45;6.78;;;14.20;99.90;;;;;;5019307;28;20688;-88
2021/10/25 09:27:03;;;;;;;25.13;5.82;;;14.30;99.90;;;;;;5026021;28;20065;-88
2021/10/25 09:29:37;;;;;;;19.33;4.80;;;14.20;99.90;;;;;;5025120;28;20056;-88
2021/10/25 09:32:14;;;;;;;23.17;5.60;;;14.50;99.90;;;;;;4996281;28;20046;-87
2021/10/25 09:35:06;;;;;;;17.95;5.40;;;14.50;99.90;;;;;;5024676;28;20052;-89
2021/10/25 09:38:03;;;;;;;17.10;3.75;;;14.60;99.90;;;;;;5030503;28;20054;-87
2021/10/25 09:41:17;;;;;;;15.48;4.72;;;14.70;99.90;;;;;;5009140;28;20042;-89
2021/10/25 09:45:06;;;;;;;13.85;3.50;;;14.70;99.90;;;;;;5028924;28;20520;-87
2021/10/25 09:49:33;;;;;;;30.15;3.78;;;14.80;99.90;;;;;;4970855;28;20060;-88
2021/10/25 09:52:07;;;;;;;12.85;2.53;;;14.70;99.90;;;;;;4979138;28;20630;-86
2021/10/25 09:54:38;;;;;;;26.17;2.88;;;14.80;99.90;;;;;;5024386;28;20054;-87
2021/10/25 09:57:23;;;;;;;11.82;2.08;;;14.80;99.90;;;;;;4991728;28;20053;-88
2021/10/25 10:00:26;;;;;;;15.70;2.85;;;14.80;99.90;;;;;;5014144;28;20520;-90
2021/10/25 10:03:07;;;;;;;7.30;2.17;;;15.00;99.90;;;;;;5017198;28;20289;-88
2021/10/25 10:05:59;;;;;;;7.57;2.05;;;15.00;99.90;;;;;;5013782;28;20053;-88
2021/10/25 10:08:36;;;;;;;10.07;2.33;;;15.10;99.90;;;;;;5014651;28;20049;-87
2021/10/25 10:11:17;;;;;;;12.13;2.20;;;15.10;99.90;;;;;;5015625;28;20076;-88
2021/10/25 10:13:47;;;;;;;13.13;4.47;;;15.20;99.90;;;;;;5035333;28;20055;-87
2021/10/25 10:16:37;;;;;;;14.57;3.17;;;15.20;99.90;;;;;;5016951;28;20041;-88
2021/10/25 10:19:11;;;;;;;9.75;2.15;;;15.20;99.90;;;;;;5035067;28;20064;-88
2021/10/25 10:22:02;;;;;;;12.70;2.58;;;15.20;99.90;;;;;;5036920;28;20492;-88
2021/10/25 10:24:49;;;;;;;11.75;2.28;;;15.30;99.90;;;;;;5018486;28;20421;-89
2021/10/25 10:27:23;;;;;;;10.02;1.77;;;15.30;99.90;;;;;;5037289;28;20049;-87
2021/10/25 10:29:54;;;;;;;7.53;1.70;;;15.40;99.90;;;;;;5029509;28;20072;-87
2021/10/25 10:32:41;;;;;;;6.97;1.75;;;15.50;99.90;;;;;;5031927;28;20041;-88
2021/10/25 10:35:40;;;;;;;6.93;1.75;;;15.60;99.90;;;;;;5044353;28;20049;-88
2021/10/25 10:38:15;;;;;;;11.57;1.63;;;15.70;99.90;;;;;;5028243;28;20061;-88
2021/10/25 10:41:04;;;;;;;5.22;1.60;;;15.80;99.90;;;;;;5026429;28;20394;-87
2021/10/25 10:44:12;;;;;;;8.75;1.88;;;15.80;99.90;;;;;;5037671;28;20045;-90
2021/10/25 10:46:55;;;;;;;10.25;2.63;;;15.80;99.90;;;;;;5032167;28;20052;-88
2021/10/25 10:49:28;;;;;;;6.18;1.25;;;15.90;99.90;;;;;;5054250;28;20637;-88
2021/10/25 10:52:31;;;;;;;9.02;2.67;;;15.90;99.90;;;;;;5049382;28;20057;-88
2021/10/25 10:55:09;;;;;;;3.97;1.40;;;15.90;99.90;;;;;;5038990;28;20056;-89
2021/10/25 11:00:35;;;;;;;10.38;1.33;;;15.90;99.90;;;;;;5034365;28;20045;-90
2021/10/25 11:03:13;;;;;;;6.90;1.83;;;16.00;99.90;;;;;;5037580;28;20064;-88
2021/10/25 11:05:44;;;;;;;13.13;2.17;;;16.10;99.90;;;;;;5020603;28;20065;-88
2021/10/25 11:08:21;;;;;;;5.60;1.40;;;16.10;99.90;;;;;;5047723;28;20037;-90
2021/10/25 11:11:08;;;;;;;4.90;3.25;;;16.20;99.90;;;;;;5033633;28;20056;-92
2021/10/25 11:14:07;;;;;;;8.25;1.88;;;16.20;99.90;;;;;;5035433;28;20056;-87
2021/10/25 11:16:51;;;;;;;12.80;2.60;;;16.20;99.90;;;;;;5028226;28;20045;-85
2021/10/25 11:19:19;;;;;;;6.90;1.60;;;16.30;99.90;;;;;;5037693;28;20053;-85
2021/10/25 11:21:52;;;;;;;7.95;2.50;;;16.30;99.90;;;;;;5019002;28;20055;-84
2021/10/25 11:24:23;;;;;;;12.68;2.33;;;16.30;99.90;;;;;;5035685;28;20065;-85
2021/10/25 11:26:58;;;;;;;;;;;16.40;99.90;;;;;;4712311;28;10000928;-88
2021/10/25 11:29:35;;;;;;;12.95;3.22;;;16.40;99.90;;;;;;5031278;28;19929;-88
2021/10/25 11:32:12;;;;;;;10.60;1.90;;;16.50;99.90;;;;;;5024928;28;20061;-87
2021/10/25 11:34:54;;;;;;;15.18;3.70;;;16.50;99.90;;;;;;5009632;28;20040;-86
2021/10/25 11:37:26;;;;;;;;;;;16.60;99.90;;;;;;5024002;28;20053;-85
2021/10/25 11:40:05;;;;;;;9.50;2.35;;;16.60;99.90;;;;;;5041748;28;19925;-85
2021/10/25 11:42:45;;;;;;;14.63;3.70;;;16.80;99.90;;;;;;5013672;28;20064;-87
2021/10/25 11:45:25;;;;;;;7.63;2.67;;;16.90;99.90;;;;;;5041009;28;20045;-87
2021/10/25 11:47:54;;;;;;;9.25;1.88;;;17.00;99.90;;;;;;5038239;28;20057;-87
2021/10/25 11:50:26;;;;;;;10.25;2.38;;;17.00;99.90;;;;;;5028379;28;20046;-86
2021/10/25 11:52:59;;;;;;;5.70;1.50;;;16.90;99.90;;;;;;5030551;28;20049;-86
2021/10/25 11:55:37;;;;;;;8.80;1.77;;;16.90;99.90;;;;;;5034585;28;20057;-87
2021/10/25 11:58:17;;;;;;;8.63;2.15;;;16.70;99.90;;;;;;5032422;28;20059;-87
2021/10/25 12:00:49;;;;;;;9.15;1.77;;;16.60;99.90;;;;;;5026222;28;20053;-87
2021/10/25 12:03:28;;;;;;;10.52;4.63;;;16.50;99.90;;;;;;5025187;28;20050;-86
2021/10/25 12:06:01;;;;;;;7.72;1.80;;;16.40;99.90;;;;;;5025201;28;20053;-85
2021/10/25 12:08:30;;;;;;;12.80;2.30;;;16.30;99.90;;;;;;5040182;28;20499;-84
2021/10/25 12:10:58;;;;;;;13.90;2.13;;;16.30;99.90;;;;;;5029956;28;20044;-88
2021/10/25 12:13:35;;;;;;;11.60;3.03;;;16.20;99.90;;;;;;5026851;28;20069;-85
2021/10/25 12:16:09;;;;;;;9.00;1.77;;;16.20;99.90;;;;;;5035494;28;20053;-86
2021/10/25 12:18:38;;;;;;;11.93;2.70;;;16.10;99.90;;;;;;5041151;28;20052;-87
2021/10/25 12:21:11;;;;;;;10.15;2.17;;;16.10;99.90;;;;;;5031621;28;20524;-86
2021/10/25 12:23:47;;;;;;;7.85;2.13;;;16.10;99.90;;;;;;5031505;28;20045;-86
2021/10/25 12:26:18;;;;;;;11.93;2.63;;;16.10;99.90;;;;;;5044984;28;20046;-86
2021/10/25 12:28:46;;;;;;;;;;;16.20;99.90;;;;;;5022448;28;20046;-86
2021/10/25 12:31:19;;;;;;;6.35;1.70;;;16.20;99.90;;;;;;5041790;28;20384;-86
2021/10/25 12:33:51;;;;;;;16.60;2.33;;;16.20;99.90;;;;;;5037985;28;20393;-87
2021/10/25 12:36:22;;;;;;;11.35;2.65;;;16.20;99.90;;;;;;5016170;28;20052;-86
2021/10/25 12:38:52;;;;;;;13.13;2.53;;;16.20;99.90;;;;;;5032562;28;20061;-90
2021/10/25 12:41:24;;;;;;;7.15;2.25;;;16.20;99.90;;;;;;5016686;28;20286;-87
2021/10/25 12:43:59;;;;;;;16.50;3.78;;;16.30;99.90;;;;;;5033945;28;20068;-85
2021/10/25 12:46:32;;;;;;;11.15;2.95;;;16.20;99.90;;;;;;5011457;28;20049;-88
2021/10/25 12:49:02;;;;;;;9.90;2.47;;;16.20;99.90;;;;;;5027284;28;20060;-87
2021/10/25 12:51:42;;;;;;;9.55;2.75;;;15.90;99.90;;;;;;5046129;28;20058;-87
2021/10/25 12:54:12;;;;;;;10.10;2.20;;;15.90;99.90;;;;;;5029075;28;20065;-88
2021/10/25 12:56:42;;;;;;;8.45;1.70;;;15.70;99.90;;;;;;5030943;28;20524;-85
2021/10/25 12:59:13;;;;;;;6.13;1.63;;;15.70;99.90;;;;;;5043456;28;20132;-87
2021/10/25 13:01:55;;;;;;;6.50;1.95;;;15.60;99.90;;;;;;5011523;28;20049;-87
2021/10/25 13:04:23;;;;;;;9.15;1.95;;;15.60;99.90;;;;;;5025706;28;20049;-87
2021/10/25 13:06:52;;;;;;;10.32;2.38;;;15.60;99.90;;;;;;5031420;28;20057;-87
2021/10/25 13:09:20;;;;;;;9.05;3.30;;;15.70;99.90;;;;;;5028749;28;20049;-87
2021/10/25 13:11:51;;;;;;;5.47;1.73;;;15.80;99.90;;;;;;5047198;28;20041;-88
2021/10/25 13:14:23;;;;;;;9.40;2.92;;;15.90;99.90;;;;;;5032067;28;20050;-88
2021/10/25 13:16:59;;;;;;;6.47;1.92;;;16.00;99.90;;;;;;5030004;28;20045;-88
2021/10/25 13:19:30;;;;;;;6.07;1.73;;;16.10;99.90;;;;;;5000385;28;20064;-90
2021/10/25 13:22:07;;;;;;;7.95;2.38;;;16.30;99.90;;;;;;5034190;28;20048;-88
2021/10/25 13:24:39;;;;;;;11.50;2.75;;;16.40;99.90;;;;;;5022849;28;20694;-88
2021/10/25 13:27:10;;;;;;;10.45;1.60;;;16.40;99.90;;;;;;5036945;28;20065;-90
2021/10/25 13:29:43;;;;;;;13.93;2.10;;;16.40;99.90;;;;;;5025141;28;20064;-90
2021/10/25 13:32:11;;;;;;;8.43;1.92;;;16.50;99.90;;;;;;5032449;28;20052;-90
2021/10/25 13:34:42;;;;;;;4.60;1.88;;;16.50;99.90;;;;;;5046041;28;20056;-89
2021/10/25 13:37:15;;;;;;;7.40;2.53;;;16.60;99.90;;;;;;5038644;28;20048;-88
2021/10/25 13:39:48;;;;;;;8.57;1.95;;;16.60;99.90;;;;;;5043901;28;20383;-88
2021/10/25 13:42:18;;;;;;;10.65;2.45;;;16.60;99.90;;;;;;5036069;28;20050;-85
2021/10/25 13:44:46;;;;;;;7.45;1.85;;;16.60;99.90;;;;;;5034174;28;20048;-86
2021/10/25 13:47:15;;;;;;;9.27;2.83;;;16.60;99.90;;;;;;5033133;28;20055;-86
2021/10/25 13:49:55;;;;;;;13.23;2.22;;;16.70;99.90;;;;;;5016905;28;20056;-87
2021/10/25 13:52:25;;;;;;;11.55;2.00;;;16.70;99.90;;;;;;5029587;28;20048;-86
2021/10/25 13:54:56;;;;;;;9.75;2.38;;;16.70;99.90;;;;;;5038282;28;20049;-87
2021/10/25 13:57:27;;;;;;;5.22;2.95;;;16.70;99.90;;;;;;5048214;28;20045;-88
2021/10/25 14:00:11;;;;;;;7.32;2.13;;;16.60;99.90;;;;;;5041647;28;20041;-85
2021/10/25 14:03:00;;;;;;;8.70;2.47;;;16.60;99.90;;;;;;5025354;28;20049;-86
2021/10/25 14:05:35;;;;;;;16.55;3.67;;;16.70;99.90;;;;;;5037133;28;20052;-88
2021/10/25 14:08:05;;;;;;;8.52;3.05;;;16.70;99.90;;;;;;5032826;28;20056;-86
2021/10/25 14:10:49;;;;;;;7.95;2.90;;;16.70;99.90;;;;;;5030616;28;20052;-85
2021/10/25 14:13:28;;;;;;;9.98;2.20;;;16.70;99.90;;;;;;5022188;28;20090;-87
2021/10/25 14:18:49;;;;;;;10.35;3.60;;;16.60;99.90;;;;;;5028472;28;20512;-88
2021/10/25 14:21:18;;;;;;;9.10;1.80;;;16.60;99.90;;;;;;5006768;28;20042;-88
2021/10/25 14:23:47;;;;;;;6.03;1.80;;;16.60;99.90;;;;;;5019786;28;20056;-88
2021/10/25 14:26:15;;;;;;;10.80;2.03;;;16.60;99.90;;;;;;5033199;28;20045;-88
2021/10/25 14:28:47;;;;;;;8.30;2.45;;;16.50;99.90;;;;;;5039682;28;20042;-88
2021/10/25 14:31:15;;;;;;;10.88;3.08;;;16.50;99.90;;;;;;5044495;28;20038;-89
2021/10/25 14:34:34;;;;;;;12.13;2.40;;;16.50;99.90;;;;;;5042483;28;20053;-88
2021/10/25 14:37:08;;;;;;;10.07;2.72;;;16.50;99.90;;;;;;5039120;28;20062;-90
2021/10/25 14:39:48;;;;;;;7.53;1.35;;;16.60;99.90;;;;;;5033860;28;20473;-90
2021/10/25 14:42:37;;;;;;;4.75;2.00;;;16.70;99.90;;;;;;5036380;28;20053;-89
2021/10/25 14:58:26;;;;;;;7.15;1.30;;;17.10;99.90;;;;;;5029482;28;20275;-93
2021/10/25 15:01:08;;;;;;;2.70;1.20;;;17.20;99.90;;;;;;5013790;28;20324;-90
2021/10/25 15:03:47;;;;;;;4.03;1.20;;;17.30;99.90;;;;;;5049618;28;20392;-90
2021/10/25 15:06:20;;;;;;;4.38;1.50;;;17.20;99.90;;;;;;5021032;28;20061;-88
2021/10/25 15:09:09;;;;;;;3.15;1.40;;;17.10;99.90;;;;;;5053679;28;20424;-90
2021/10/25 15:11:58;;;;;;;1.65;1.02;;;16.80;99.90;;;;;;5023764;28;20065;-90
2021/10/25 15:14:53;;;;;;;5.68;1.25;;;16.70;99.90;;;;;;5046103;28;20057;-87
2021/10/25 15:17:24;;;;;;;6.95;1.35;;;16.60;99.90;;;;;;5051641;28;20037;-87
2021/10/25 15:19:54;;;;;;;;;;;16.60;99.90;;;;;;5055669;28;20056;-87
2021/10/25 15:22:23;;;;;;;3.50;1.33;;;16.50;99.90;;;;;;5048796;28;19925;-90